Oakwood, GA

8:04 PM EDT on September 19, 2014 (GMT -0400)
Hideaway Bay Marina | Change Station
CLOSE
Current Station
Personal Weather Station
Location: Flowery Branch, GA
Elevation: 1109 ft
Nearby Weather Stations

Elev 1109 ft 34.18 °N, 83.94 °W | Updated 24 seconds ago

Clear
Clear
73.0 °F
Feels Like 74 °F
N
6.0
Wind Variable Wind from NE
Gusts 6.0 mph

Today
High -- | Low -- °F
--% Chance of Precip.
Yesterday
High -- | Low -- °F
Precip. -- in
7:21 AM 7:36 PM
Waning Crescent, 16% visible
Pressure 30.11 in
Visibility 10.0 miles
Clouds Scattered Clouds 2800 ft
Heat Index 74 °F
Dew Point 65 °F
Humidity 75%
Rainfall 0.00 in
Snow Depth Not available.
UV 0.0 out of 12
Pollen 7.90 out of 12
Air Quality Not available.
Flu Activity Not available.
METAR KGVL 192353Z AUTO 09007KT 10SM SCT028 22/17 A3015 RMK AO2 SLP196 T02220172 10267 20222 53010

More Conditions Fewer Conditions

Pressure 30.11 in
Visibility 10.0 miles
Clouds Scattered Clouds 2800 ft
Heat Index 74 °F
Dew Point 65 °F
Humidity 75%
Rainfall 0.00 in
Snow Depth Not available.
UV 0.0 out of 12
Pollen 7.90 out of 12
Air Quality Not available.
Flu Activity Not available.
METAR KGVL 192353Z AUTO 09007KT 10SM SCT028 22/17 A3015 RMK AO2 SLP196 T02220172 10267 20222 53010

More Conditions Fewer Conditions

10-Day Weather Forecast

Almanac

Astronomy

Sep. 19, 2014 Rise Set
Actual Time 7:21 AM EDT 7:36 PM EDT
Civil Twilight 6:56 AM EDT 8:01 PM EDT
Nautical Twilight 6:27 AM EDT 8:30 PM EDT
Astronomical Twilight 5:57 AM EDT 9:00 PM EDT
Moon 3:14 AM EDT (9/19) 4:56 PM EDT (9/19)
Length of Visible Light 13h 05m
Length of Day
12h 15m
Tomorrow will be 2m 7s shorter.
Waning Crescent, 16% of the Moon is Illuminated
Today
Waning Crescent
Sep 24
New
Oct 1
First Quarter
Oct 8
Full
Oct 15
Last Quarter

Today's Extremes

State Highs State Lows

Community

WunderPhotos

Upload Photos

1,754,734 photos uploaded!

WunderBlogs® & News

Nearby

Snow Depth

Station Depth Elevation
No new snow has been reported.

Earthquake Activity

City Distance Mag. Time & Date
No recent earthquake activity has been reported nearby.
Minimum magnitude displayed is 2.5.

Coastal Water Temperatures

Place Temperature
No Stations Reporting

Nearby Weather Stations